Flight Track Log - Related Links

Times and Time Zones

All times are in EDT time to prevent confusion due to time zone crossing. See the DAL1745 flight status page for this flight to view local times or setup timezone preferences in your user account.

Time Position Orientation Groundspeed Altitude Reporting Facility
EDT Latitude Longitude Course Direction KTS MPH feet Rate Location/Type
Thu 11:19:30 AM 38.8667 -77.0500 322° Northwest 153 176 1,300  Level Potomac TRACON
Thu 11:20:24 AM 38.9000 -77.0833 322° Northwest 181 208 2,600 1,947 Climbing Potomac TRACON
Thu 11:21:24 AM 38.9500 -77.1333 296° West 253 291 5,000 2,549 Climbing Potomac TRACON
Thu 11:23:37 AM 39.0239 -77.3256 288° West 285 328 10,800 2,487 Climbing Washington Center
Thu 11:24:37 AM 39.0533 -77.4414 315° West 308 354 13,000 2,281 Climbing Washington Center
Thu 11:25:38 AM 39.1147 -77.5203 328° Northwest 329 379 15,400 2,262 Climbing Washington Center
Thu 11:26:39 AM 39.2031 -77.5925 327° Northwest 346 398 17,600 1,916 Climbing Washington Center
Thu 11:27:37 AM 39.2936 -77.6672 328° Northwest 368 423 19,200 1,780 Climbing Washington Center
Thu 11:28:37 AM 39.3881 -77.7425 327° Northwest 384 442 21,100 1,785 Climbing Washington Center
Thu 11:29:38 AM 39.4847 -77.8233 312° West 407 468 22,800 1,587 Climbing Washington Center
Thu 11:30:38 AM 39.5597 -77.9333 291° West 412 474 24,300 1,302 Climbing Washington Center
Thu 11:32:47 AM 39.6556 -78.2589 291° West 441 507 26,900 1,143 Climbing Cleveland Center
Thu 11:33:47 AM 39.7003 -78.4083 291° West 446 513 27,900 950 Climbing Cleveland Center
Thu 11:34:47 AM 39.7469 -78.5661 300° West 459 528 28,800 1,300 Climbing Cleveland Center
Thu 11:35:47 AM 39.8186 -78.7261 302° West 459 528 30,500 1,500 Climbing Cleveland Center
Thu 11:36:47 AM 39.8853 -78.8650 302° West 459 528 31,800 750 Climbing Cleveland Center
Thu 11:37:47 AM 39.9478 -78.9936 302° West 464 534 32,000 100 Climbing Cleveland Center
Thu 11:38:47 AM 40.0142 -79.1328 300° West 464 534 32,000  Level Cleveland Center
Thu 11:39:47 AM 40.0850 -79.2914 303° West 464 534 32,000  Level Cleveland Center
Thu 11:40:47 AM 40.1467 -79.4178 301° West 464 534 32,000  Level Cleveland Center
Thu 11:41:47 AM 40.2128 -79.5608 302° West 464 534 32,000  Level Cleveland Center
Thu 11:42:47 AM 40.2786 -79.7014 300° West 464 534 32,000  Level Cleveland Center
Thu 11:43:47 AM 40.3419 -79.8450 301° West 464 534 32,000 -500 Level Cleveland Center
Thu 11:44:47 AM 40.4075 -79.9858 300° West 464 534 31,000 -1,000 Descending Cleveland Center
Thu 11:45:47 AM 40.4792 -80.1519 301° West 470 541 30,000 -500 Descending Cleveland Center
Thu 11:46:47 AM 40.5442 -80.2933 300° West 465 535 30,000  Level Cleveland Center
Thu 11:47:47 AM 40.6008 -80.4217 300° West 465 535 30,000  Level Cleveland Center
Thu 11:48:47 AM 40.6633 -80.5667 301° West 455 524 30,000  Level Cleveland Center
Thu 11:49:47 AM 40.7342 -80.7228 303° West 455 524 30,000  Level Cleveland Center
Thu 11:50:47 AM 40.7964 -80.8492 303° West 455 524 30,000  Level Cleveland Center
Thu 11:51:47 AM 40.8647 -80.9867 302° West 455 524 30,000  Level Cleveland Center
Thu 11:52:47 AM 40.9372 -81.1411 303° West 450 518 30,000  Level Cleveland Center
Thu 11:53:47 AM 41.0072 -81.2819 303° West 455 524 30,000  Level Cleveland Center
Thu 11:54:47 AM 41.0750 -81.4206 304° West 455 524 30,000  Level Cleveland Center
Thu 11:55:47 AM 41.1386 -81.5481 303° West 455 524 30,000 -150 Level Cleveland Center
Thu 11:56:47 AM 41.2042 -81.6844 303° West 455 524 29,700 -600 Descending Cleveland Center
Thu 11:57:47 AM 41.2717 -81.8208 303° West 450 518 28,800 -950 Descending Cleveland Center
Thu 11:58:47 AM 41.3367 -81.9547 302° West 445 512 27,800 -1,200 Descending Cleveland Center
Thu 11:59:47 AM 41.3997 -82.0917 302° West 438 504 26,400 -1,550 Descending Cleveland Center
Thu 12:00:47 PM 41.4606 -82.2206 303° West 427 491 24,700 -2,250 Descending Cleveland Center
Thu 12:01:47 PM 41.5292 -82.3639 302° West 421 484 21,900 -2,850 Descending Cleveland Center
Thu 12:02:47 PM 41.5856 -82.4847 303° West 410 472 19,000 -2,850 Descending Cleveland Center
Thu 12:03:47 PM 41.6439 -82.6061 303° West 402 463 16,200 -2,950 Descending Cleveland Center
Thu 12:04:47 PM 41.7003 -82.7244 307° West 389 448 13,100 -2,733 Descending Cleveland Center
Thu 12:05:17 PM 41.7325 -82.7814 315° West 378 435 12,100 -1,200 Descending Cleveland Center
Thu 12:05:47 PM 41.7692 -82.8300 318° Northwest 389 448 11,900 -133 Descending Cleveland Center
Thu 12:06:47 PM 41.8464 -82.9247 318° Northwest 382 440 11,900  Level Cleveland Center
Thu 12:07:19 PM 41.8911 -82.9792 319° Northwest 380 437 11,900  Level Cleveland Center
Thu 12:08:26 PM 41.9786 -83.0831 318° Northwest 380 437 11,900  Level Cleveland Center
Thu 12:09:09 PM 42.0333 -83.1494 318° Northwest 380 437 11,900  Level Cleveland Center
Thu 12:09:47 PM 42.0761 -83.2017 334° Northwest 368 423 11,900 -367 Level Cleveland Center
Thu 12:10:47 PM 42.1436 -83.2464 20° North 336 387 11,300 -900 Descending Cleveland Center
Thu 12:11:47 PM 42.2175 -83.2103 27° Northeast 265 305 10,100 -1,625 Descending Cleveland Center
Thu 12:12:23 PM 42.2683 -83.1758 26° Northeast 275 316 8,700 -1,918 Descending Cleveland Center
Thu 12:13:24 PM 42.3361 -83.1308 18° North 270 311 7,000 -1,759 Descending Cleveland Center
Thu 12:14:19 PM 42.3950 -83.1053 282° West 243 280 5,300 -1,293 Descending Cleveland Center
Thu 12:15:20 PM 42.4042 -83.1644 225° Southwest 160 184 4,500 -639 Descending Cleveland Center
Thu 12:16:21 PM 42.3719 -83.2083 221° Southwest 164 189 4,000 -639 Descending Cleveland Center
Thu 12:17:22 PM 42.3375 -83.2489 207° Southwest 168 193 3,200 -850 Descending Cleveland Center
Thu 12:18:28 PM 42.2908 -83.2806 215° Southwest 156 180 2,200 -803 Descending Cleveland Center
Thu 12:19:29 PM 42.2589 -83.3103 205° Southwest 135 155 1,500 -703 Descending Cleveland Center
Thu 12:20:36 PM 42.2208 -83.3339 205° Southwest 133 153 700 -716 Descending Cleveland Center

Login

Don't have an account? Register now (free) for customized features, flight alerts, and more!